sensor_id;sensor_type;location;lat;lon;timestamp;pressure;altitude;pressure_sealevel;temperature;humidity
18790;BME280;9523;42.650;23.386;2023-04-10T00:00:29;94749.97;;;7.44;98.50
18790;BME280;9523;42.650;23.386;2023-04-10T00:02:58;94748.38;;;7.43;97.72
18790;BME280;9523;42.650;23.386;2023-04-10T00:05:30;94739.44;;;7.49;93.71
18790;BME280;9523;42.650;23.386;2023-04-10T00:07:57;94740.22;;;7.54;90.77
18790;BME280;9523;42.650;23.386;2023-04-10T00:10:24;94744.69;;;7.59;87.32
18790;BME280;9523;42.650;23.386;2023-04-10T00:12:54;94719.00;;;7.36;86.65
18790;BME280;9523;42.650;23.386;2023-04-10T00:15:21;94738.38;;;7.55;87.30
18790;BME280;9523;42.650;23.386;2023-04-10T00:17:48;94742.84;;;7.49;81.37
18790;BME280;9523;42.650;23.386;2023-04-10T00:20:19;94734.97;;;7.60;78.27
18790;BME280;9523;42.650;23.386;2023-04-10T00:22:51;94741.53;;;7.62;73.18
18790;BME280;9523;42.650;23.386;2023-04-10T00:25:19;94725.22;;;7.65;76.22
18790;BME280;9523;42.650;23.386;2023-04-10T00:27:47;94724.97;;;7.67;71.43
18790;BME280;9523;42.650;23.386;2023-04-10T00:30:14;94725.50;;;7.64;69.58
18790;BME280;9523;42.650;23.386;2023-04-10T00:32:41;94715.25;;;7.67;67.61
18790;BME280;9523;42.650;23.386;2023-04-10T00:35:08;94720.25;;;7.64;68.20
18790;BME280;9523;42.650;23.386;2023-04-10T00:37:35;94728.88;;;7.69;68.35
18790;BME280;9523;42.650;23.386;2023-04-10T00:40:04;94722.09;;;7.68;69.88
18790;BME280;9523;42.650;23.386;2023-04-10T00:42:31;94716.84;;;7.68;71.32
18790;BME280;9523;42.650;23.386;2023-04-10T00:44:58;94722.84;;;7.69;70.75
18790;BME280;9523;42.650;23.386;2023-04-10T00:47:26;94713.94;;;7.70;71.38
18790;BME280;9523;42.650;23.386;2023-04-10T00:49:53;94697.41;;;7.59;71.93
18790;BME280;9523;42.650;23.386;2023-04-10T00:52:20;94718.91;;;7.71;72.28
18790;BME280;9523;42.650;23.386;2023-04-10T00:54:47;94722.06;;;7.73;74.24
18790;BME280;9523;42.650;23.386;2023-04-10T00:57:16;94718.91;;;7.76;74.37
18790;BME280;9523;42.650;23.386;2023-04-10T00:59:43;94707.06;;;7.79;74.67
18790;BME280;9523;42.650;23.386;2023-04-10T01:02:10;94706.00;;;7.85;75.59
18790;BME280;9523;42.650;23.386;2023-04-10T01:04:38;94616.66;;;7.21;76.30
18790;BME280;9523;42.650;23.386;2023-04-10T01:07:10;94707.88;;;7.79;76.33
18790;BME280;9523;42.650;23.386;2023-04-10T01:09:47;94699.47;;;7.77;77.82
18790;BME280;9523;42.650;23.386;2023-04-10T01:12:29;94714.47;;;7.72;77.43
18790;BME280;9523;42.650;23.386;2023-04-10T01:15:06;94698.97;;;7.70;79.71
18790;BME280;9523;42.650;23.386;2023-04-10T01:17:42;94701.09;;;7.63;84.60
18790;BME280;9523;42.650;23.386;2023-04-10T01:20:13;94692.66;;;7.66;83.14
18790;BME280;9523;42.650;23.386;2023-04-10T01:22:51;94697.91;;;7.61;84.87
18790;BME280;9523;42.650;23.386;2023-04-10T01:25:39;94697.13;;;7.61;85.86
18790;BME280;9523;42.650;23.386;2023-04-10T01:28:23;94704.25;;;7.55;84.22
18790;BME280;9523;42.650;23.386;2023-04-10T01:30:58;94701.88;;;7.59;84.63
18790;BME280;9523;42.650;23.386;2023-04-10T01:33:31;94698.72;;;7.56;84.05
18790;BME280;9523;42.650;23.386;2023-04-10T01:36:02;94703.75;;;7.48;81.28
18790;BME280;9523;42.650;23.386;2023-04-10T01:38:30;94690.09;;;7.51;83.66
18790;BME280;9523;42.650;23.386;2023-04-10T01:40:58;94699.53;;;7.52;82.74
18790;BME280;9523;42.650;23.386;2023-04-10T01:43:28;94699.00;;;7.50;84.43
18790;BME280;9523;42.650;23.386;2023-04-10T01:45:58;94697.41;;;7.49;83.29
18790;BME280;9523;42.650;23.386;2023-04-10T01:48:26;94692.47;;;7.47;83.09
18790;BME280;9523;42.650;23.386;2023-04-10T01:50:53;94701.63;;;7.55;84.23
18790;BME280;9523;42.650;23.386;2023-04-10T01:53:22;94704.75;;;7.57;85.98
18790;BME280;9523;42.650;23.386;2023-04-10T01:55:49;94696.09;;;7.56;87.06
18790;BME280;9523;42.650;23.386;2023-04-10T01:58:18;94692.72;;;7.56;85.76
18790;BME280;9523;42.650;23.386;2023-04-10T02:00:44;94704.50;;;7.64;87.92
18790;BME280;9523;42.650;23.386;2023-04-10T02:03:13;94704.22;;;7.65;89.34
18790;BME280;9523;42.650;23.386;2023-04-10T02:05:53;94701.88;;;7.64;86.96
18790;BME280;9523;42.650;23.386;2023-04-10T02:08:25;94696.09;;;7.62;87.68
18790;BME280;9523;42.650;23.386;2023-04-10T02:10:59;94695.31;;;7.61;87.92
18790;BME280;9523;42.650;23.386;2023-04-10T02:13:28;94689.53;;;7.64;89.57
18790;BME280;9523;42.650;23.386;2023-04-10T02:15:59;94679.84;;;7.54;90.90
18790;BME280;9523;42.650;23.386;2023-04-10T02:18:30;94678.50;;;7.62;91.16
18790;BME280;9523;42.650;23.386;2023-04-10T02:20:59;94669.59;;;7.58;91.02
18790;BME280;9523;42.650;23.386;2023-04-10T02:23:25;94676.66;;;7.63;89.93
18790;BME280;9523;42.650;23.386;2023-04-10T02:25:52;94659.88;;;7.48;91.56
18790;BME280;9523;42.650;23.386;2023-04-10T02:28:21;94673.78;;;7.59;92.37
18790;BME280;9523;42.650;23.386;2023-04-10T02:30:48;94676.41;;;7.59;91.51
18790;BME280;9523;42.650;23.386;2023-04-10T02:33:15;94669.84;;;7.56;89.47
18790;BME280;9523;42.650;23.386;2023-04-10T02:35:43;94669.31;;;7.60;87.75
18790;BME280;9523;42.650;23.386;2023-04-10T02:38:09;94655.97;;;7.51;88.42
18790;BME280;9523;42.650;23.386;2023-04-10T02:40:36;94658.03;;;7.59;87.54
18790;BME280;9523;42.650;23.386;2023-04-10T02:43:03;94629.22;;;7.39;88.04
18790;BME280;9523;42.650;23.386;2023-04-10T02:45:30;94656.47;;;7.53;88.68
18790;BME280;9523;42.650;23.386;2023-04-10T02:47:57;94652.00;;;7.53;89.69
18790;BME280;9523;42.650;23.386;2023-04-10T02:50:24;94647.84;;;7.42;88.37
18790;BME280;9523;42.650;23.386;2023-04-10T02:52:55;94650.22;;;7.39;86.60
18790;BME280;9523;42.650;23.386;2023-04-10T02:55:22;94632.38;;;7.31;89.48
18790;BME280;9523;42.650;23.386;2023-04-10T02:57:49;94644.47;;;7.27;89.08
18790;BME280;9523;42.650;23.386;2023-04-10T03:00:16;94636.34;;;7.23;91.37
18790;BME280;9523;42.650;23.386;2023-04-10T03:02:43;94637.41;;;7.12;93.20
18790;BME280;9523;42.650;23.386;2023-04-10T03:05:10;94634.53;;;6.93;95.84
18790;BME280;9523;42.650;23.386;2023-04-10T03:07:37;94641.91;;;6.76;98.55
18790;BME280;9523;42.650;23.386;2023-04-10T03:10:07;94641.91;;;6.76;100.00
18790;BME280;9523;42.650;23.386;2023-04-10T03:12:34;94641.09;;;6.71;100.00
18790;BME280;9523;42.650;23.386;2023-04-10T03:15:00;94641.88;;;6.61;100.00
18790;BME280;9523;42.650;23.386;2023-04-10T03:17:27;94610.44;;;6.51;100.00
18790;BME280;9523;42.650;23.386;2023-04-10T03:19:54;94620.38;;;6.49;100.00
18790;BME280;9523;42.650;23.386;2023-04-10T03:22:21;94613.59;;;6.33;100.00
18790;BME280;9523;42.650;23.386;2023-04-10T03:24:48;94640.03;;;6.46;100.00
18790;BME280;9523;42.650;23.386;2023-04-10T03:27:16;94641.09;;;6.50;100.00
18790;BME280;9523;42.650;23.386;2023-04-10T03:29:43;94650.28;;;6.48;100.00
18790;BME280;9523;42.650;23.386;2023-04-10T03:32:10;94615.91;;;6.29;100.00
18790;BME280;9523;42.650;23.386;2023-04-10T03:34:37;94645.28;;;6.41;100.00
18790;BME280;9523;42.650;23.386;2023-04-10T03:37:04;94645.00;;;6.28;100.00
18790;BME280;9523;42.650;23.386;2023-04-10T03:39:31;94650.50;;;6.31;100.00
18790;BME280;9523;42.650;23.386;2023-04-10T03:41:58;94618.78;;;6.12;100.00
18790;BME280;9523;42.650;23.386;2023-04-10T03:44:26;94653.91;;;6.27;100.00
18790;BME280;9523;42.650;23.386;2023-04-10T03:46:53;94658.09;;;6.28;100.00
18790;BME280;9523;42.650;23.386;2023-04-10T03:49:20;94653.38;;;6.30;100.00
18790;BME280;9523;42.650;23.386;2023-04-10T03:51:46;94653.13;;;6.31;100.00
18790;BME280;9523;42.650;23.386;2023-04-10T03:54:13;94595.72;;;5.99;100.00
18790;BME280;9523;42.650;23.386;2023-04-10T03:56:40;94658.13;;;6.53;100.00
18790;BME280;9523;42.650;23.386;2023-04-10T03:59:10;94662.34;;;6.59;100.00
18790;BME280;9523;42.650;23.386;2023-04-10T04:01:39;94671.75;;;6.65;100.00
18790;BME280;9523;42.650;23.386;2023-04-10T04:04:05;94662.06;;;6.66;100.00
18790;BME280;9523;42.650;23.386;2023-04-10T04:06:32;94670.72;;;6.81;100.00
18790;BME280;9523;42.650;23.386;2023-04-10T04:08:59;94671.50;;;6.82;100.00
18790;BME280;9523;42.650;23.386;2023-04-10T04:11:26;94664.44;;;6.87;100.00
18790;BME280;9523;42.650;23.386;2023-04-10T04:13:53;94671.25;;;6.93;100.00
18790;BME280;9523;42.650;23.386;2023-04-10T04:16:20;94681.75;;;6.93;100.00
18790;BME280;9523;42.650;23.386;2023-04-10T04:18:48;94674.41;;;7.05;100.00
18790;BME280;9523;42.650;23.386;2023-04-10T04:21:15;94677.31;;;7.04;100.00
18790;BME280;9523;42.650;23.386;2023-04-10T04:23:42;94684.63;;;7.12;100.00
18790;BME280;9523;42.650;23.386;2023-04-10T04:26:09;94683.81;;;7.17;100.00
18790;BME280;9523;42.650;23.386;2023-04-10T04:28:35;94674.91;;;7.13;100.00
18790;BME280;9523;42.650;23.386;2023-04-10T04:31:02;94675.69;;;7.23;100.00
18790;BME280;9523;42.650;23.386;2023-04-10T04:33:33;94681.47;;;7.30;100.00
18790;BME280;9523;42.650;23.386;2023-04-10T04:36:05;94677.00;;;7.26;100.00
18790;BME280;9523;42.650;23.386;2023-04-10T04:38:32;94686.44;;;7.17;100.00
18790;BME280;9523;42.650;23.386;2023-04-10T04:40:59;94685.94;;;7.15;100.00
18790;BME280;9523;42.650;23.386;2023-04-10T04:43:26;94677.03;;;7.00;100.00
18790;BME280;9523;42.650;23.386;2023-04-10T04:45:52;94684.91;;;6.95;100.00
18790;BME280;9523;42.650;23.386;2023-04-10T04:48:19;94688.56;;;6.89;100.00
18790;BME280;9523;42.650;23.386;2023-04-10T04:50:46;94688.56;;;6.89;100.00
18790;BME280;9523;42.650;23.386;2023-04-10T04:53:14;94681.75;;;6.73;100.00
18790;BME280;9523;42.650;23.386;2023-04-10T04:55:41;94687.00;;;6.78;100.00
18790;BME280;9523;42.650;23.386;2023-04-10T04:58:08;94667.56;;;6.49;100.00
18790;BME280;9523;42.650;23.386;2023-04-10T05:00:35;94684.38;;;6.63;100.00
18790;BME280;9523;42.650;23.386;2023-04-10T05:03:02;94701.66;;;6.74;100.00
18790;BME280;9523;42.650;23.386;2023-04-10T05:05:30;94699.56;;;6.66;100.00
18790;BME280;9523;42.650;23.386;2023-04-10T05:07:57;94693.28;;;6.62;100.00
18790;BME280;9523;42.650;23.386;2023-04-10T05:10:26;94701.94;;;6.68;100.00
18790;BME280;9523;42.650;23.386;2023-04-10T05:12:53;94688.56;;;6.59;100.00
18790;BME280;9523;42.650;23.386;2023-04-10T05:15:21;94710.03;;;6.61;100.00
18790;BME280;9523;42.650;23.386;2023-04-10T05:17:48;94704.53;;;6.63;100.00
18790;BME280;9523;42.650;23.386;2023-04-10T05:20:17;94701.66;;;6.54;100.00
18790;BME280;9523;42.650;23.386;2023-04-10T05:22:44;94710.84;;;6.67;100.00
18790;BME280;9523;42.650;23.386;2023-04-10T05:25:11;94692.47;;;6.61;100.00
18790;BME280;9523;42.650;23.386;2023-04-10T05:27:39;94706.66;;;6.71;100.00
18790;BME280;9523;42.650;23.386;2023-04-10T05:30:07;94702.19;;;6.66;100.00
18790;BME280;9523;42.650;23.386;2023-04-10T05:32:34;94696.97;;;6.71;100.00
18790;BME280;9523;42.650;23.386;2023-04-10T05:35:01;94695.13;;;6.77;100.00
18790;BME280;9523;42.650;23.386;2023-04-10T05:37:28;94709.28;;;6.81;100.00
18790;BME280;9523;42.650;23.386;2023-04-10T05:39:55;94699.84;;;6.75;100.00
18790;BME280;9523;42.650;23.386;2023-04-10T05:42:22;94697.50;;;6.83;100.00
18790;BME280;9523;42.650;23.386;2023-04-10T05:44:51;94710.09;;;6.96;100.00
18790;BME280;9523;42.650;23.386;2023-04-10T05:47:18;94700.91;;;7.04;100.00
18790;BME280;9523;42.650;23.386;2023-04-10T05:49:44;94698.00;;;7.21;100.00
18790;BME280;9523;42.650;23.386;2023-04-10T05:52:11;94702.19;;;7.32;100.00
18790;BME280;9523;42.650;23.386;2023-04-10T05:54:41;94706.88;;;7.45;100.00
18790;BME280;9523;42.650;23.386;2023-04-10T05:57:07;94714.75;;;7.55;100.00
18790;BME280;9523;42.650;23.386;2023-04-10T05:59:34;94711.31;;;7.65;100.00
18790;BME280;9523;42.650;23.386;2023-04-10T06:02:03;94674.59;;;7.49;100.00
18790;BME280;9523;42.650;23.386;2023-04-10T06:04:30;94704.16;;;7.85;100.00
18790;BME280;9523;42.650;23.386;2023-04-10T06:06:57;94707.28;;;7.97;100.00
18790;BME280;9523;42.650;23.386;2023-04-10T06:09:24;94719.00;;;8.20;100.00
18790;BME280;9523;42.650;23.386;2023-04-10T06:11:51;94714.00;;;8.29;99.30
18790;BME280;9523;42.650;23.386;2023-04-10T06:14:18;94707.09;;;8.43;98.70
18790;BME280;9523;42.650;23.386;2023-04-10T06:16:45;94717.50;;;8.63;95.72
18790;BME280;9523;42.650;23.386;2023-04-10T06:19:13;94717.44;;;8.73;94.51
18790;BME280;9523;42.650;23.386;2023-04-10T06:21:40;94714.19;;;8.86;91.92
18790;BME280;9523;42.650;23.386;2023-04-10T06:24:07;94710.69;;;8.96;89.24
18790;BME280;9523;42.650;23.386;2023-04-10T06:26:34;94721.16;;;9.06;89.38
18790;BME280;9523;42.650;23.386;2023-04-10T06:29:02;94636.47;;;8.65;88.11
18790;BME280;9523;42.650;23.386;2023-04-10T06:31:31;94712.34;;;9.21;87.60
18790;BME280;9523;42.650;23.386;2023-04-10T06:33:59;94708.31;;;9.28;85.74
18790;BME280;9523;42.650;23.386;2023-04-10T06:36:27;94705.84;;;9.42;86.27
18790;BME280;9523;42.650;23.386;2023-04-10T06:38:54;94723.16;;;9.48;85.43
18790;BME280;9523;42.650;23.386;2023-04-10T06:41:21;94718.63;;;9.54;85.09
18790;BME280;9523;42.650;23.386;2023-04-10T06:43:47;94714.03;;;9.64;83.27
18790;BME280;9523;42.650;23.386;2023-04-10T06:46:14;94711.16;;;9.66;81.33
18790;BME280;9523;42.650;23.386;2023-04-10T06:48:42;94720.41;;;9.63;81.07
18790;BME280;9523;42.650;23.386;2023-04-10T06:51:09;94713.66;;;9.76;79.98
18790;BME280;9523;42.650;23.386;2023-04-10T06:53:37;94716.69;;;9.64;79.24
18790;BME280;9523;42.650;23.386;2023-04-10T06:56:07;94724.16;;;9.81;79.59
18790;BME280;9523;42.650;23.386;2023-04-10T06:58:35;94721.66;;;9.95;79.15
18790;BME280;9523;42.650;23.386;2023-04-10T07:01:02;94726.75;;;9.86;79.31
18790;BME280;9523;42.650;23.386;2023-04-10T07:03:29;94700.78;;;9.74;78.52
18790;BME280;9523;42.650;23.386;2023-04-10T07:05:56;94730.63;;;9.94;80.13
18790;BME280;9523;42.650;23.386;2023-04-10T07:08:23;94726.31;;;10.03;78.81
18790;BME280;9523;42.650;23.386;2023-04-10T07:10:54;94718.41;;;10.03;77.90
18790;BME280;9523;42.650;23.386;2023-04-10T07:13:21;94727.81;;;10.09;77.56
18790;BME280;9523;42.650;23.386;2023-04-10T07:15:47;94710.53;;;9.98;78.50
18790;BME280;9523;42.650;23.386;2023-04-10T07:18:14;94730.97;;;10.11;77.69
18790;BME280;9523;42.650;23.386;2023-04-10T07:20:41;94717.47;;;10.12;76.77
18790;BME280;9523;42.650;23.386;2023-04-10T07:23:08;94733.03;;;10.14;76.89
18790;BME280;9523;42.650;23.386;2023-04-10T07:25:35;94702.13;;;9.96;77.36
18790;BME280;9523;42.650;23.386;2023-04-10T07:28:04;94728.38;;;10.06;78.40
18790;BME280;9523;42.650;23.386;2023-04-10T07:30:39;94722.38;;;10.00;78.61
18790;BME280;9523;42.650;23.386;2023-04-10T07:33:06;94725.69;;;10.11;77.27
18790;BME280;9523;42.650;23.386;2023-04-10T07:35:33;94732.84;;;10.05;76.34
18790;BME280;9523;42.650;23.386;2023-04-10T07:38:00;94720.63;;;9.90;76.62
18790;BME280;9523;42.650;23.386;2023-04-10T07:40:28;94727.94;;;9.99;77.10
18790;BME280;9523;42.650;23.386;2023-04-10T07:42:55;94731.13;;;10.19;76.09
18790;BME280;9523;42.650;23.386;2023-04-10T07:45:23;94733.38;;;10.31;75.79
18790;BME280;9523;42.650;23.386;2023-04-10T07:47:52;94722.13;;;10.44;78.95
18790;BME280;9523;42.650;23.386;2023-04-10T07:50:23;94723.28;;;10.57;76.70
18790;BME280;9523;42.650;23.386;2023-04-10T07:52:50;94732.78;;;10.58;74.58
18790;BME280;9523;42.650;23.386;2023-04-10T07:55:18;94732.19;;;10.79;74.28
18790;BME280;9523;42.650;23.386;2023-04-10T07:57:44;94726.78;;;10.90;73.22
18790;BME280;9523;42.650;23.386;2023-04-10T08:00:12;94730.41;;;10.75;70.67
18790;BME280;9523;42.650;23.386;2023-04-10T08:02:44;94721.00;;;10.69;72.13
18790;BME280;9523;42.650;23.386;2023-04-10T08:05:11;94727.38;;;10.87;72.06
18790;BME280;9523;42.650;23.386;2023-04-10T08:07:38;94704.88;;;10.89;71.21
18790;BME280;9523;42.650;23.386;2023-04-10T08:10:05;94727.78;;;10.94;70.03
18790;BME280;9523;42.650;23.386;2023-04-10T08:12:32;94732.50;;;10.97;70.45
18790;BME280;9523;42.650;23.386;2023-04-10T08:15:00;94727.59;;;10.90;71.14
18790;BME280;9523;42.650;23.386;2023-04-10T08:17:26;94725.72;;;10.91;71.71
18790;BME280;9523;42.650;23.386;2023-04-10T08:19:58;94725.31;;;11.16;71.06
18790;BME280;9523;42.650;23.386;2023-04-10T08:22:24;94735.69;;;11.12;71.43
18790;BME280;9523;42.650;23.386;2023-04-10T08:24:51;94722.88;;;11.19;71.73
18790;BME280;9523;42.650;23.386;2023-04-10T08:27:18;94722.03;;;11.24;69.16
18790;BME280;9523;42.650;23.386;2023-04-10T08:29:45;94726.53;;;11.23;69.88
18790;BME280;9523;42.650;23.386;2023-04-10T08:32:12;94730.88;;;11.33;68.02
18790;BME280;9523;42.650;23.386;2023-04-10T08:34:39;94720.38;;;11.60;74.97
18790;BME280;9523;42.650;23.386;2023-04-10T08:37:07;94732.38;;;11.85;70.89
18790;BME280;9523;42.650;23.386;2023-04-10T08:39:36;94725.91;;;11.77;65.97
18790;BME280;9523;42.650;23.386;2023-04-10T08:42:05;94727.31;;;11.89;67.16
18790;BME280;9523;42.650;23.386;2023-04-10T08:44:32;94721.41;;;11.92;66.69
18790;BME280;9523;42.650;23.386;2023-04-10T08:47:01;94716.03;;;11.97;65.23
18790;BME280;9523;42.650;23.386;2023-04-10T08:49:31;94725.91;;;11.91;65.34
18790;BME280;9523;42.650;23.386;2023-04-10T08:52:07;94718.88;;;11.87;65.07
18790;BME280;9523;42.650;23.386;2023-04-10T08:54:37;94720.75;;;11.86;65.69
18790;BME280;9523;42.650;23.386;2023-04-10T08:57:05;94717.13;;;11.63;65.02
18790;BME280;9523;42.650;23.386;2023-04-10T08:59:32;94716.16;;;11.59;64.77
18790;BME280;9523;42.650;23.386;2023-04-10T09:02:04;94718.91;;;11.54;64.79
18790;BME280;9523;42.650;23.386;2023-04-10T09:04:31;94713.31;;;11.56;64.22
18790;BME280;9523;42.650;23.386;2023-04-10T09:06:59;94714.69;;;11.53;63.33
18790;BME280;9523;42.650;23.386;2023-04-10T09:09:27;94708.50;;;11.44;64.58
18790;BME280;9523;42.650;23.386;2023-04-10T09:12:01;94706.50;;;11.36;65.60
18790;BME280;9523;42.650;23.386;2023-04-10T09:14:30;94714.28;;;11.46;66.83
18790;BME280;9523;42.650;23.386;2023-04-10T09:17:11;94715.44;;;11.40;65.51
18790;BME280;9523;42.650;23.386;2023-04-10T09:19:38;94698.38;;;11.32;65.89
18790;BME280;9523;42.650;23.386;2023-04-10T09:22:05;94685.91;;;11.38;66.16
18790;BME280;9523;42.650;23.386;2023-04-10T09:24:36;94703.41;;;11.48;64.82
18790;BME280;9523;42.650;23.386;2023-04-10T09:27:04;94698.44;;;11.46;64.01
18790;BME280;9523;42.650;23.386;2023-04-10T09:29:48;94696.47;;;11.52;63.12
18790;BME280;9523;42.650;23.386;2023-04-10T09:32:35;94697.25;;;11.52;63.75
18790;BME280;9523;42.650;23.386;2023-04-10T09:35:02;94697.84;;;11.49;64.36
18790;BME280;9523;42.650;23.386;2023-04-10T09:37:31;94703.53;;;11.56;63.74
18790;BME280;9523;42.650;23.386;2023-04-10T09:39:59;94691.00;;;11.48;65.92
18790;BME280;9523;42.650;23.386;2023-04-10T09:42:30;94692.81;;;11.34;65.10
18790;BME280;9523;42.650;23.386;2023-04-10T09:45:01;94695.03;;;11.27;68.68
18790;BME280;9523;42.650;23.386;2023-04-10T09:47:29;94695.28;;;11.44;69.23
18790;BME280;9523;42.650;23.386;2023-04-10T09:49:59;94685.53;;;11.58;68.38
18790;BME280;9523;42.650;23.386;2023-04-10T09:52:27;94691.25;;;11.79;64.22
18790;BME280;9523;42.650;23.386;2023-04-10T09:54:59;94684.13;;;11.93;62.09
18790;BME280;9523;42.650;23.386;2023-04-10T09:57:28;94687.38;;;11.90;61.79
18790;BME280;9523;42.650;23.386;2023-04-10T09:59:58;94689.50;;;12.29;58.94
18790;BME280;9523;42.650;23.386;2023-04-10T10:02:28;94686.25;;;12.46;56.77
18790;BME280;9523;42.650;23.386;2023-04-10T10:04:57;94681.13;;;12.49;59.09
18790;BME280;9523;42.650;23.386;2023-04-10T10:07:27;94680.78;;;12.64;59.21
18790;BME280;9523;42.650;23.386;2023-04-10T10:09:57;94688.75;;;12.64;56.62
18790;BME280;9523;42.650;23.386;2023-04-10T10:12:34;94674.44;;;12.65;55.92
18790;BME280;9523;42.650;23.386;2023-04-10T10:15:06;94676.88;;;12.62;55.19
18790;BME280;9523;42.650;23.386;2023-04-10T10:17:38;94675.94;;;12.58;56.84
18790;BME280;9523;42.650;23.386;2023-04-10T10:20:12;94670.81;;;12.61;54.71
18790;BME280;9523;42.650;23.386;2023-04-10T10:22:39;94626.19;;;12.33;55.46
18790;BME280;9523;42.650;23.386;2023-04-10T10:25:08;94664.56;;;12.80;55.20
18790;BME280;9523;42.650;23.386;2023-04-10T10:27:38;94660.03;;;13.16;52.93
18790;BME280;9523;42.650;23.386;2023-04-10T10:30:07;94658.06;;;13.52;52.75
18790;BME280;9523;42.650;23.386;2023-04-10T10:32:36;94647.94;;;13.94;50.74
18790;BME280;9523;42.650;23.386;2023-04-10T10:35:05;94654.69;;;14.08;51.08
18790;BME280;9523;42.650;23.386;2023-04-10T10:37:34;94643.56;;;13.98;51.18
18790;BME280;9523;42.650;23.386;2023-04-10T10:40:05;94635.63;;;13.89;50.69
18790;BME280;9523;42.650;23.386;2023-04-10T10:42:41;94641.09;;;13.93;50.56
18790;BME280;9523;42.650;23.386;2023-04-10T10:45:14;94636.22;;;13.86;49.96
18790;BME280;9523;42.650;23.386;2023-04-10T10:47:48;94626.34;;;13.78;50.77
18790;BME280;9523;42.650;23.386;2023-04-10T10:50:17;94631.94;;;13.68;50.84
18790;BME280;9523;42.650;23.386;2023-04-10T10:52:45;94621.16;;;13.64;51.27
18790;BME280;9523;42.650;23.386;2023-04-10T10:55:32;94623.28;;;13.85;50.64
18790;BME280;9523;42.650;23.386;2023-04-10T10:58:05;94623.38;;;15.14;48.56
18790;BME280;9523;42.650;23.386;2023-04-10T11:01:03;94618.16;;;16.48;43.19
18790;BME280;9523;42.650;23.386;2023-04-10T11:03:30;94590.00;;;17.46;41.12
18790;BME280;9523;42.650;23.386;2023-04-10T11:05:58;94591.03;;;18.50;40.02
18790;BME280;9523;42.650;23.386;2023-04-10T11:08:40;94591.19;;;18.82;39.70
18790;BME280;9523;42.650;23.386;2023-04-10T11:11:13;94593.53;;;18.07;38.80
18790;BME280;9523;42.650;23.386;2023-04-10T11:14:12;94592.34;;;17.02;40.66
18790;BME280;9523;42.650;23.386;2023-04-10T11:16:46;94587.69;;;16.16;42.64
18790;BME280;9523;42.650;23.386;2023-04-10T11:19:13;94590.41;;;15.70;43.27
18790;BME280;9523;42.650;23.386;2023-04-10T11:22:04;94581.88;;;15.56;43.92
18790;BME280;9523;42.650;23.386;2023-04-10T11:24:55;94585.00;;;15.87;42.85
18790;BME280;9523;42.650;23.386;2023-04-10T11:27:45;94574.91;;;15.25;44.02
18790;BME280;9523;42.650;23.386;2023-04-10T11:30:32;94571.88;;;14.80;44.99
18790;BME280;9523;42.650;23.386;2023-04-10T11:33:03;94571.72;;;14.51;47.08
18790;BME280;9523;42.650;23.386;2023-04-10T11:35:34;94577.81;;;14.43;47.56
18790;BME280;9523;42.650;23.386;2023-04-10T11:38:08;94575.94;;;14.78;47.54
18790;BME280;9523;42.650;23.386;2023-04-10T11:40:36;94580.63;;;14.81;46.97
18790;BME280;9523;42.650;23.386;2023-04-10T11:43:19;94571.84;;;14.97;47.32
18790;BME280;9523;42.650;23.386;2023-04-10T11:45:47;94580.56;;;15.15;47.23
18790;BME280;9523;42.650;23.386;2023-04-10T11:48:14;94574.34;;;15.49;45.11
18790;BME280;9523;42.650;23.386;2023-04-10T11:50:44;94569.41;;;16.06;44.46
18790;BME280;9523;42.650;23.386;2023-04-10T11:53:17;94573.28;;;16.09;44.11
18790;BME280;9523;42.650;23.386;2023-04-10T11:55:46;94563.59;;;15.83;43.83
18790;BME280;9523;42.650;23.386;2023-04-10T11:58:26;94555.94;;;15.44;44.03
18790;BME280;9523;42.650;23.386;2023-04-10T12:01:03;94561.34;;;15.01;44.52
18790;BME280;9523;42.650;23.386;2023-04-10T12:03:34;94572.97;;;14.79;44.16
18790;BME280;9523;42.650;23.386;2023-04-10T12:06:02;94575.28;;;14.29;46.15
18790;BME280;9523;42.650;23.386;2023-04-10T12:08:30;94562.47;;;14.14;46.38
18790;BME280;9523;42.650;23.386;2023-04-10T12:10:57;94568.44;;;13.63;49.18
18790;BME280;9523;42.650;23.386;2023-04-10T12:13:24;94560.47;;;13.54;50.18
18790;BME280;9523;42.650;23.386;2023-04-10T12:15:56;94570.22;;;13.37;52.36
18790;BME280;9523;42.650;23.386;2023-04-10T12:18:30;94578.56;;;13.22;54.96
18790;BME280;9523;42.650;23.386;2023-04-10T12:20:59;94580.78;;;13.06;58.76
18790;BME280;9523;42.650;23.386;2023-04-10T12:23:27;94592.47;;;12.83;59.58
18790;BME280;9523;42.650;23.386;2023-04-10T12:26:06;94577.50;;;12.56;60.64
18790;BME280;9523;42.650;23.386;2023-04-10T12:28:34;94573.81;;;12.43;60.73
18790;BME280;9523;42.650;23.386;2023-04-10T12:31:01;94581.75;;;12.43;64.02
18790;BME280;9523;42.650;23.386;2023-04-10T12:33:30;94587.31;;;12.19;66.31
18790;BME280;9523;42.650;23.386;2023-04-10T12:35:56;94576.72;;;12.19;67.91
18790;BME280;9523;42.650;23.386;2023-04-10T12:38:40;94586.53;;;12.19;66.88
18790;BME280;9523;42.650;23.386;2023-04-10T12:41:08;94582.91;;;12.15;67.68
18790;BME280;9523;42.650;23.386;2023-04-10T12:43:37;94585.56;;;12.15;69.27
18790;BME280;9523;42.650;23.386;2023-04-10T12:46:05;94578.03;;;12.22;64.28
18790;BME280;9523;42.650;23.386;2023-04-10T12:48:34;94579.91;;;12.44;60.37
18790;BME280;9523;42.650;23.386;2023-04-10T12:51:01;94583.06;;;12.99;57.93
18790;BME280;9523;42.650;23.386;2023-04-10T12:53:41;94567.41;;;13.33;55.55
18790;BME280;9523;42.650;23.386;2023-04-10T12:56:08;94568.94;;;13.74;55.69
18790;BME280;9523;42.650;23.386;2023-04-10T12:58:37;94570.91;;;13.51;55.27
18790;BME280;9523;42.650;23.386;2023-04-10T13:01:06;94559.56;;;13.68;54.71
18790;BME280;9523;42.650;23.386;2023-04-10T13:03:35;94556.09;;;13.58;55.72
18790;BME280;9523;42.650;23.386;2023-04-10T13:06:03;94563.09;;;13.54;55.52
18790;BME280;9523;42.650;23.386;2023-04-10T13:08:30;94544.88;;;13.53;54.81
18790;BME280;9523;42.650;23.386;2023-04-10T13:10:57;94544.78;;;13.75;54.28
18790;BME280;9523;42.650;23.386;2023-04-10T13:13:28;94550.59;;;14.03;53.69